• Join FlightAware (Why Join?)
  • Login
  • US Flag 
Gobble Gobble! 
12:09PM EST


 

Airport Tracker/Info


-or-


 

Live Flight TrackerFlight Track Log ✈ TYR919 ✈ 21-Apr-2013 ✈ LOWW / VIE - LOWS / SZG

Flight Track Log - Related Links

Times and Time Zones

All times are in EDT time to prevent confusion due to time zone crossing. See the TYR919 flight status page for this flight to view local times or setup timezone preferences in your user account.

Time Position Orientation Groundspeed Altitude Reporting Facility
EDT Latitude Longitude Course Direction KTS MPH feet Rate Location/Type
04:06PM 48.0793 16.1552 264° West  Level Estimated
04:07PM 48.0686 16.0171 263° West  Level Estimated
04:08PM 48.0578 15.8791 263° West  Level Estimated
04:09PM 48.0468 15.7412 263° West  Level Estimated
04:10PM 48.0356 15.6033 263° West  Level Estimated
04:11PM 48.0243 15.4655 263° West  Level Estimated
04:12PM 48.0128 15.3277 263° West  Level Estimated
04:13PM 48.0012 15.1900 263° West  Level Estimated
04:14PM 47.9893 15.0524 263° West  Level Estimated
04:15PM 47.9774 14.9148 263° West  Level Estimated
04:16PM 47.9652 14.7773 263° West  Level Estimated
04:17PM 47.9529 14.6398 262° West  Level Estimated
04:18PM 47.9404 14.5025 262° West  Level Estimated
04:19PM 47.9278 14.3652 262° West  Level Estimated
04:20PM 47.9150 14.2279 262° West  Level Estimated
04:21PM 47.9020 14.0907 262° West  Level Estimated
04:22PM 47.8889 13.9536 262° West  Level Estimated
04:23PM 47.8756 13.8166 262° West  Level Estimated
04:24PM 47.8621 13.6796 262° West  Level Estimated
04:25PM 47.8485 13.5427 262° West  Level Estimated
04:26PM 47.8347 13.4059 262° West  Level Estimated
04:27PM 47.8208 13.2691 261° West  Level Estimated
04:28PM 47.8067 13.1324 261° West  Level Estimated
04:29PM 47.7933 13.0043 261° West  Level Estimated
04:30PM 47.7933 13.0043 27° Northeast  Level Estimated
04:31PM 47.7933 13.0043 27° Northeast  Level Estimated
04:32PM 47.7933 13.0043 27° Northeast  Level Estimated
04:33PM 47.7933 13.0043 27° Northeast  Level Estimated
04:34PM 47.7933 13.0043 27° Northeast  Level Estimated
04:35PM 47.7933 13.0043 27° Northeast  Level Estimated